BAW74X DNMM-EGLL
Flight info
| Callsign | BAW74X |
|---|---|
| Flight time | N/A |
| Altitude | 41000 |
| Route | BUDSI1Q BUDSI UB731 KIGRA UY333 MIGNI UY212 EREBO/N0486F400 UA604 TMS/N0486F390 UZ111 OPRIC/N0483F400 UZ111 ELO UR978 CSO UM998 KAMER DCT NAFOQ DCT SURJU DCT PADKO DCT MRM DCT MTL DCT ETREK DCT MADOT DCT MOPEM DCT CACHI DCT AVLON DCT OKRIX DCT BRY/N0473F360 DCT CLM DCT KOPOR DCT ABNUR DCT DIMAL DCT ALESO ALESO1H |
| Aircraft | B78X/H-SADE1E2E3FGHIJ1J3J4J5J6LM1M2OP2RWXYZ/LB1D1G1 |
Departure
| Time | N/A |
|---|---|
| Airport | Murtala Muhammed International Airport (DNMM) |
Arrival
| Time | 2026-04-30 21:03 |
|---|---|
| Airport | London Heathrow Airport (EGLL) |
| Time | Latitude | Longitude | Altitude | Speed | Heading |
|---|---|---|---|---|---|
| 2026-04-30 17:54 | 27.90428 | 6.04844 | 40981 ft | 517 kts | 1° |
| 2026-04-30 17:56 | 28.19092 | 6.08385 | 40982 ft | 521 kts | 1° |
| 2026-04-30 17:58 | 28.40695 | 6.11066 | 40977 ft | 520 kts | 1° |
| 2026-04-30 18:00 | 28.69308 | 6.14643 | 40965 ft | 516 kts | 2° |
| 2026-04-30 18:01 | 28.87153 | 6.16879 | 40965 ft | 516 kts | 2° |
| 2026-04-30 18:02 | 29.08610 | 6.19578 | 40960 ft | 516 kts | 2° |
| 2026-04-30 18:04 | 29.30122 | 6.22292 | 40915 ft | 519 kts | 2° |
| 2026-04-30 18:06 | 29.58860 | 6.25944 | 40927 ft | 519 kts | 2° |
| 2026-04-30 18:08 | 29.83961 | 6.29151 | 40915 ft | 519 kts | 2° |
| 2026-04-30 18:10 | 30.11459 | 6.32691 | 40919 ft | 518 kts | 2° |
| 2026-04-30 18:11 | 30.36399 | 6.35911 | 40920 ft | 516 kts | 2° |
| 2026-04-30 18:13 | 30.54257 | 6.38227 | 40921 ft | 516 kts | 2° |
| 2026-04-30 18:14 | 30.72078 | 6.40547 | 40921 ft | 516 kts | 2° |
| 2026-04-30 18:15 | 30.93521 | 6.43351 | 40919 ft | 516 kts | 2° |
| 2026-04-30 18:16 | 31.07808 | 6.45226 | 40919 ft | 516 kts | 2° |
| 2026-04-30 18:17 | 31.14910 | 6.46160 | 40914 ft | 516 kts | 2° |
| 2026-04-30 18:18 | 31.25626 | 6.47572 | 40917 ft | 516 kts | 2° |
| 2026-04-30 18:18 | 31.32753 | 6.48513 | 40916 ft | 517 kts | 2° |
| 2026-04-30 18:19 | 31.39907 | 6.49459 | 40908 ft | 516 kts | 2° |
| 2026-04-30 18:19 | 31.47067 | 6.50407 | 40921 ft | 516 kts | 2° |
| 2026-04-30 18:20 | 31.54170 | 6.51349 | 40911 ft | 517 kts | 2° |
| 2026-04-30 18:20 | 31.61319 | 6.52299 | 40913 ft | 516 kts | 2° |
| 2026-04-30 18:21 | 31.68471 | 6.53251 | 40920 ft | 517 kts | 2° |
| 2026-04-30 18:21 | 31.75617 | 6.54203 | 40908 ft | 516 kts | 2° |
| 2026-04-30 18:22 | 31.82710 | 6.55150 | 40918 ft | 516 kts | 2° |
| 2026-04-30 18:22 | 31.93445 | 6.56585 | 40909 ft | 516 kts | 2° |
| 2026-04-30 18:23 | 32.00590 | 6.57543 | 40917 ft | 516 kts | 2° |
| 2026-04-30 18:23 | 32.07689 | 6.58495 | 40925 ft | 516 kts | 2° |
| 2026-04-30 18:24 | 32.18393 | 6.59934 | 40916 ft | 515 kts | 2° |
| 2026-04-30 18:25 | 32.25479 | 6.60885 | 40928 ft | 515 kts | 2° |
| 2026-04-30 18:25 | 32.36150 | 6.62322 | 40916 ft | 514 kts | 2° |
| 2026-04-30 18:26 | 32.46791 | 6.63769 | 40931 ft | 512 kts | 2° |
| 2026-04-30 18:27 | 32.57411 | 6.65211 | 40925 ft | 511 kts | 2° |
| 2026-04-30 18:28 | 32.67995 | 6.66651 | 40929 ft | 511 kts | 2° |
| 2026-04-30 18:28 | 32.78593 | 6.68090 | 40934 ft | 510 kts | 2° |
| 2026-04-30 18:29 | 32.92708 | 6.70018 | 40925 ft | 510 kts | 3° |
| 2026-04-30 18:30 | 33.06768 | 6.71951 | 40922 ft | 510 kts | 3° |
| 2026-04-30 18:31 | 33.17349 | 6.73406 | 40930 ft | 509 kts | 3° |
| 2026-04-30 18:32 | 33.27873 | 6.74856 | 40913 ft | 509 kts | 3° |
| 2026-04-30 18:33 | 33.38436 | 6.76316 | 40923 ft | 509 kts | 3° |
| 2026-04-30 18:33 | 33.48997 | 6.77704 | 40905 ft | 507 kts | 359° |
| 2026-04-30 18:34 | 33.59534 | 6.77546 | 40912 ft | 504 kts | 353° |
| 2026-04-30 18:35 | 33.66533 | 6.77121 | 40916 ft | 503 kts | 353° |
| 2026-04-30 18:35 | 33.73515 | 6.76407 | 40920 ft | 502 kts | 350° |
| 2026-04-30 18:36 | 33.83890 | 6.75054 | 40923 ft | 502 kts | 350° |
| 2026-04-30 18:37 | 33.94348 | 6.73769 | 40915 ft | 502 kts | 350° |
| 2026-04-30 18:37 | 34.01268 | 6.72934 | 40927 ft | 502 kts | 350° |
| 2026-04-30 18:38 | 34.08239 | 6.72093 | 40925 ft | 502 kts | 350° |
| 2026-04-30 18:38 | 34.15205 | 6.71251 | 40927 ft | 502 kts | 350° |
| 2026-04-30 18:39 | 34.22139 | 6.70411 | 40941 ft | 503 kts | 350° |
| 2026-04-30 18:39 | 34.29099 | 6.69566 | 40943 ft | 503 kts | 350° |
| 2026-04-30 18:40 | 34.36070 | 6.68719 | 40967 ft | 503 kts | 350° |
| 2026-04-30 18:40 | 34.43014 | 6.67874 | 40981 ft | 503 kts | 350° |
| 2026-04-30 18:41 | 34.49986 | 6.67024 | 40974 ft | 503 kts | 350° |
| 2026-04-30 18:41 | 34.56968 | 6.66171 | 40989 ft | 503 kts | 350° |
| 2026-04-30 18:42 | 34.63939 | 6.65318 | 40989 ft | 503 kts | 350° |
| 2026-04-30 18:42 | 34.74361 | 6.64040 | 41006 ft | 503 kts | 350° |
| 2026-04-30 18:45 | 35.12684 | 6.59313 | 41071 ft | 503 kts | 350° |
| 2026-04-30 18:46 | 35.19608 | 6.58454 | 41088 ft | 503 kts | 350° |
| 2026-04-30 18:46 | 35.26578 | 6.57588 | 41105 ft | 503 kts | 350° |
| 2026-04-30 18:47 | 35.33554 | 6.56719 | 41105 ft | 503 kts | 350° |
| 2026-04-30 18:47 | 35.40522 | 6.55851 | 41120 ft | 502 kts | 350° |
| 2026-04-30 18:48 | 35.47484 | 6.54981 | 41136 ft | 503 kts | 350° |
| 2026-04-30 18:48 | 35.54443 | 6.54110 | 41141 ft | 502 kts | 350° |
| 2026-04-30 18:49 | 35.61347 | 6.53245 | 41151 ft | 502 kts | 350° |
| 2026-04-30 18:49 | 35.68318 | 6.52370 | 41136 ft | 502 kts | 350° |
| 2026-04-30 18:50 | 35.75276 | 6.51495 | 41149 ft | 502 kts | 350° |
| 2026-04-30 18:50 | 35.82207 | 6.50621 | 41157 ft | 502 kts | 350° |
| 2026-04-30 18:51 | 35.89163 | 6.49743 | 41144 ft | 502 kts | 350° |
| 2026-04-30 18:51 | 35.96122 | 6.48864 | 41152 ft | 502 kts | 350° |
| 2026-04-30 18:52 | 36.01917 | 6.48130 | 41155 ft | 502 kts | 350° |
| 2026-04-30 18:52 | 36.08884 | 6.47246 | 41142 ft | 502 kts | 350° |
| 2026-04-30 18:53 | 36.15798 | 6.46367 | 41153 ft | 501 kts | 350° |
| 2026-04-30 18:53 | 36.22708 | 6.45494 | 41207 ft | 493 kts | 350° |
| 2026-04-30 18:54 | 36.29471 | 6.44643 | 41131 ft | 485 kts | 350° |
| 2026-04-30 18:54 | 36.36218 | 6.43782 | 41152 ft | 488 kts | 350° |
| 2026-04-30 18:55 | 36.42944 | 6.42920 | 41150 ft | 488 kts | 350° |
| 2026-04-30 18:55 | 36.53090 | 6.41619 | 41140 ft | 487 kts | 350° |
| 2026-04-30 18:56 | 36.63194 | 6.40319 | 41138 ft | 487 kts | 350° |
| 2026-04-30 18:57 | 36.73320 | 6.39014 | 41135 ft | 487 kts | 350° |
| 2026-04-30 18:57 | 36.80035 | 6.38146 | 41133 ft | 487 kts | 350° |
| 2026-04-30 18:58 | 36.90143 | 6.36834 | 41126 ft | 486 kts | 350° |
| 2026-04-30 18:59 | 37.00257 | 6.35517 | 41124 ft | 487 kts | 350° |
| 2026-04-30 19:00 | 37.13730 | 6.33768 | 41132 ft | 487 kts | 350° |
| 2026-04-30 19:01 | 37.27212 | 6.32006 | 41126 ft | 487 kts | 350° |
| 2026-04-30 19:02 | 37.37310 | 6.30681 | 41117 ft | 487 kts | 350° |
| 2026-04-30 19:03 | 37.50844 | 6.28901 | 41116 ft | 489 kts | 350° |
| 2026-04-30 19:04 | 37.64300 | 6.27125 | 41124 ft | 488 kts | 350° |
| 2026-04-30 19:05 | 37.77834 | 6.25330 | 41117 ft | 487 kts | 350° |
| 2026-04-30 19:06 | 37.91374 | 6.23527 | 41108 ft | 488 kts | 350° |
| 2026-04-30 19:06 | 38.01471 | 6.22184 | 41119 ft | 489 kts | 350° |
| 2026-04-30 19:07 | 38.11613 | 6.20828 | 41112 ft | 488 kts | 350° |
| 2026-04-30 19:08 | 38.25160 | 6.19005 | 41108 ft | 488 kts | 350° |
| 2026-04-30 19:09 | 38.35251 | 6.17645 | 41121 ft | 489 kts | 350° |
| 2026-04-30 19:09 | 38.42029 | 6.16729 | 41109 ft | 489 kts | 350° |
| 2026-04-30 19:10 | 38.55548 | 6.14899 | 41116 ft | 489 kts | 350° |
| 2026-04-30 19:11 | 38.65661 | 6.13526 | 41114 ft | 488 kts | 350° |
| 2026-04-30 19:12 | 38.72436 | 6.12605 | 41118 ft | 489 kts | 350° |
| 2026-04-30 19:12 | 38.79204 | 6.11685 | 41106 ft | 488 kts | 350° |
| 2026-04-30 19:13 | 38.92725 | 6.09837 | 41112 ft | 489 kts | 350° |
| 2026-04-30 19:14 | 38.99445 | 6.08901 | 41108 ft | 488 kts | 349° |
| 2026-04-30 19:14 | 39.06178 | 6.07772 | 41117 ft | 488 kts | 348° |
| 2026-04-30 19:15 | 39.12917 | 6.06579 | 41106 ft | 488 kts | 349° |
| 2026-04-30 19:15 | 39.23018 | 6.04798 | 41117 ft | 490 kts | 349° |
| 2026-04-30 19:16 | 39.29750 | 6.03611 | 41109 ft | 490 kts | 349° |
| 2026-04-30 19:17 | 39.39911 | 6.01820 | 41118 ft | 494 kts | 349° |
| 2026-04-30 19:17 | 39.50186 | 5.99998 | 41114 ft | 496 kts | 348° |
| 2026-04-30 19:18 | 39.60428 | 5.98177 | 41117 ft | 497 kts | 349° |
| 2026-04-30 19:19 | 39.67287 | 5.96959 | 41114 ft | 497 kts | 349° |
| 2026-04-30 19:19 | 39.77569 | 5.95125 | 41117 ft | 497 kts | 349° |
| 2026-04-30 19:20 | 39.84422 | 5.93898 | 41115 ft | 497 kts | 349° |
| 2026-04-30 19:21 | 39.94703 | 5.92051 | 41117 ft | 498 kts | 348° |
| 2026-04-30 19:22 | 40.08434 | 5.89573 | 41109 ft | 498 kts | 349° |
| 2026-04-30 19:23 | 40.29036 | 5.85844 | 41113 ft | 499 kts | 349° |
| 2026-04-30 19:24 | 40.39364 | 5.83971 | 41140 ft | 499 kts | 349° |
| 2026-04-30 19:25 | 40.56604 | 5.81129 | 41149 ft | 500 kts | 350° |
| 2026-04-30 19:26 | 40.70400 | 5.78948 | 41155 ft | 499 kts | 350° |
| 2026-04-30 19:27 | 40.80777 | 5.77300 | 41166 ft | 500 kts | 350° |
| 2026-04-30 19:28 | 40.91111 | 5.75654 | 41165 ft | 500 kts | 350° |
| 2026-04-30 19:29 | 41.04953 | 5.73441 | 41167 ft | 500 kts | 351° |
| 2026-04-30 19:30 | 41.18752 | 5.71225 | 41185 ft | 500 kts | 350° |
| 2026-04-30 19:31 | 41.32589 | 5.68989 | 41190 ft | 501 kts | 351° |
| 2026-04-30 19:31 | 41.41823 | 5.67501 | 41205 ft | 501 kts | 351° |
| 2026-04-30 19:32 | 41.48757 | 5.66378 | 41197 ft | 500 kts | 351° |
| 2026-04-30 19:32 | 41.56825 | 5.65062 | 41219 ft | 503 kts | 351° |
| 2026-04-30 19:33 | 41.62607 | 5.64120 | 41233 ft | 502 kts | 351° |
| 2026-04-30 19:33 | 41.69557 | 5.62985 | 41239 ft | 503 kts | 351° |
| 2026-04-30 19:34 | 41.76526 | 5.61845 | 41239 ft | 504 kts | 351° |
| 2026-04-30 19:35 | 41.86947 | 5.59913 | 41237 ft | 504 kts | 349° |
| 2026-04-30 19:35 | 41.93850 | 5.58580 | 41242 ft | 504 kts | 349° |
| 2026-04-30 19:36 | 42.00798 | 5.57243 | 41238 ft | 503 kts | 349° |
| 2026-04-30 19:36 | 42.11220 | 5.55240 | 41242 ft | 504 kts | 349° |
| 2026-04-30 19:37 | 42.18154 | 5.53904 | 41241 ft | 504 kts | 349° |
| 2026-04-30 19:37 | 42.25114 | 5.52560 | 41233 ft | 504 kts | 349° |
| 2026-04-30 19:38 | 42.32056 | 5.51216 | 41245 ft | 504 kts | 349° |
| 2026-04-30 19:38 | 42.38969 | 5.49876 | 41236 ft | 504 kts | 349° |
| 2026-04-30 19:39 | 42.45883 | 5.48532 | 41237 ft | 504 kts | 349° |
| 2026-04-30 19:39 | 42.52831 | 5.47178 | 41245 ft | 504 kts | 349° |
| 2026-04-30 19:40 | 42.59777 | 5.45822 | 41233 ft | 504 kts | 349° |
| 2026-04-30 19:40 | 42.66686 | 5.44469 | 41242 ft | 504 kts | 349° |
| 2026-04-30 19:41 | 42.73644 | 5.43105 | 41242 ft | 504 kts | 349° |
| 2026-04-30 19:41 | 42.80586 | 5.41740 | 41232 ft | 504 kts | 349° |
| 2026-04-30 19:42 | 42.87527 | 5.40372 | 41245 ft | 504 kts | 349° |
| 2026-04-30 19:42 | 42.94430 | 5.39012 | 41237 ft | 504 kts | 350° |
| 2026-04-30 19:43 | 43.01393 | 5.37639 | 41235 ft | 504 kts | 350° |
| 2026-04-30 19:44 | 43.11773 | 5.35577 | 41241 ft | 504 kts | 350° |
| 2026-04-30 19:44 | 43.18726 | 5.34192 | 41233 ft | 504 kts | 349° |
| 2026-04-30 19:45 | 43.25709 | 5.33253 | 41248 ft | 506 kts | 355° |
| 2026-04-30 19:45 | 43.32775 | 5.32852 | 41231 ft | 506 kts | 355° |
| 2026-04-30 19:46 | 43.39653 | 5.31159 | 41250 ft | 502 kts | 344° |
| 2026-04-30 19:46 | 43.46341 | 5.28576 | 41231 ft | 501 kts | 341° |
| 2026-04-30 19:47 | 43.52998 | 5.25635 | 41237 ft | 500 kts | 339° |
| 2026-04-30 19:47 | 43.59574 | 5.22627 | 41245 ft | 500 kts | 339° |
| 2026-04-30 19:48 | 43.66198 | 5.19583 | 41233 ft | 501 kts | 339° |
| 2026-04-30 19:48 | 43.72819 | 5.16539 | 41242 ft | 501 kts | 339° |
| 2026-04-30 19:49 | 43.79389 | 5.13524 | 41250 ft | 496 kts | 340° |
| 2026-04-30 19:49 | 43.89184 | 5.09027 | 41270 ft | 495 kts | 340° |
| 2026-04-30 19:50 | 43.95740 | 5.05995 | 41258 ft | 494 kts | 340° |
| 2026-04-30 19:50 | 44.02220 | 5.02984 | 41272 ft | 493 kts | 340° |
| 2026-04-30 19:51 | 44.08747 | 4.99946 | 41267 ft | 494 kts | 340° |
| 2026-04-30 19:51 | 44.15245 | 4.96919 | 41263 ft | 493 kts | 340° |
| 2026-04-30 19:52 | 44.21756 | 4.93877 | 41275 ft | 494 kts | 340° |
| 2026-04-30 19:52 | 44.28280 | 4.90822 | 41263 ft | 493 kts | 340° |
| 2026-04-30 19:53 | 44.34793 | 4.87763 | 41249 ft | 492 kts | 340° |
| 2026-04-30 19:53 | 44.41293 | 4.84704 | 41245 ft | 492 kts | 340° |
| 2026-04-30 19:54 | 44.47747 | 4.81659 | 41256 ft | 492 kts | 340° |
| 2026-04-30 19:54 | 44.54286 | 4.78750 | 41238 ft | 493 kts | 345° |
| 2026-04-30 19:55 | 44.60979 | 4.76844 | 41238 ft | 494 kts | 348° |
| 2026-04-30 19:55 | 44.67766 | 4.75281 | 41240 ft | 494 kts | 349° |
| 2026-04-30 19:56 | 44.74537 | 4.73790 | 41248 ft | 494 kts | 349° |
| 2026-04-30 19:56 | 44.81355 | 4.72283 | 41236 ft | 494 kts | 349° |
| 2026-04-30 19:57 | 44.88114 | 4.70780 | 41245 ft | 494 kts | 349° |
| 2026-04-30 19:57 | 44.94919 | 4.69260 | 41251 ft | 494 kts | 349° |
| 2026-04-30 19:58 | 45.01710 | 4.67739 | 41239 ft | 493 kts | 349° |
| 2026-04-30 19:58 | 45.08502 | 4.66197 | 41252 ft | 492 kts | 349° |
| 2026-04-30 19:59 | 45.15274 | 4.64663 | 41246 ft | 493 kts | 349° |
| 2026-04-30 20:00 | 45.25388 | 4.62366 | 41232 ft | 492 kts | 349° |
| 2026-04-30 20:00 | 45.32157 | 4.60820 | 41243 ft | 492 kts | 349° |
| 2026-04-30 20:01 | 45.42268 | 4.58504 | 41227 ft | 492 kts | 349° |
| 2026-04-30 20:01 | 45.49023 | 4.56952 | 41224 ft | 492 kts | 349° |
| 2026-04-30 20:02 | 45.59180 | 4.54610 | 41234 ft | 492 kts | 349° |
| 2026-04-30 20:03 | 45.69339 | 4.52258 | 41217 ft | 492 kts | 349° |
| 2026-04-30 20:03 | 45.76057 | 4.50699 | 41229 ft | 492 kts | 349° |
| 2026-04-30 20:04 | 45.82823 | 4.49124 | 41221 ft | 492 kts | 349° |
| 2026-04-30 20:05 | 45.92927 | 4.46765 | 41215 ft | 491 kts | 349° |
| 2026-04-30 20:05 | 46.03057 | 4.44392 | 41212 ft | 492 kts | 349° |
| 2026-04-30 20:06 | 46.09832 | 4.42797 | 41206 ft | 493 kts | 349° |
| 2026-04-30 20:06 | 46.16572 | 4.41205 | 41210 ft | 493 kts | 349° |
| 2026-04-30 20:07 | 46.23341 | 4.39605 | 41211 ft | 493 kts | 349° |
| 2026-04-30 20:08 | 46.33433 | 4.36668 | 41204 ft | 492 kts | 345° |
| 2026-04-30 20:08 | 46.40091 | 4.34328 | 41214 ft | 492 kts | 344° |
| 2026-04-30 20:09 | 46.46702 | 4.31984 | 41205 ft | 492 kts | 344° |
| 2026-04-30 20:09 | 46.56698 | 4.28454 | 41213 ft | 492 kts | 344° |
| 2026-04-30 20:10 | 46.66696 | 4.24919 | 41203 ft | 492 kts | 344° |
| 2026-04-30 20:11 | 46.76629 | 4.21394 | 41219 ft | 492 kts | 344° |
| 2026-04-30 20:11 | 46.83299 | 4.19018 | 41197 ft | 493 kts | 344° |
| 2026-04-30 20:12 | 46.93300 | 4.15447 | 41206 ft | 492 kts | 344° |
| 2026-04-30 20:13 | 46.99920 | 4.13074 | 41197 ft | 493 kts | 344° |
| 2026-04-30 20:13 | 47.06531 | 4.10414 | 41198 ft | 490 kts | 340° |
| 2026-04-30 20:14 | 47.12940 | 4.06946 | 41208 ft | 491 kts | 337° |
| 2026-04-30 20:14 | 47.19253 | 4.03253 | 41190 ft | 491 kts | 336° |
| 2026-04-30 20:15 | 47.25573 | 3.99506 | 41201 ft | 489 kts | 336° |
| 2026-04-30 20:15 | 47.31925 | 3.95734 | 41201 ft | 492 kts | 336° |
| 2026-04-30 20:16 | 47.38248 | 3.91967 | 41187 ft | 491 kts | 336° |
| 2026-04-30 20:16 | 47.44581 | 3.88189 | 41202 ft | 491 kts | 336° |
| 2026-04-30 20:17 | 47.50914 | 3.84400 | 41203 ft | 491 kts | 336° |
| 2026-04-30 20:17 | 47.56191 | 3.81235 | 41192 ft | 491 kts | 336° |
| 2026-04-30 20:18 | 47.62534 | 3.77422 | 41205 ft | 491 kts | 336° |
| 2026-04-30 20:18 | 47.68870 | 3.73604 | 41211 ft | 491 kts | 336° |
| 2026-04-30 20:19 | 47.75204 | 3.69776 | 41209 ft | 491 kts | 336° |
| 2026-04-30 20:19 | 47.81490 | 3.65968 | 41209 ft | 490 kts | 336° |
| 2026-04-30 20:20 | 47.87829 | 3.62118 | 41212 ft | 491 kts | 336° |
| 2026-04-30 20:20 | 47.94160 | 3.58261 | 41207 ft | 491 kts | 336° |
| 2026-04-30 20:21 | 48.00457 | 3.54409 | 41210 ft | 490 kts | 336° |
| 2026-04-30 20:21 | 48.06777 | 3.50524 | 41213 ft | 491 kts | 336° |
| 2026-04-30 20:22 | 48.13059 | 3.46652 | 41203 ft | 491 kts | 336° |
| 2026-04-30 20:22 | 48.19370 | 3.42752 | 41214 ft | 491 kts | 336° |
| 2026-04-30 20:23 | 48.25619 | 3.38881 | 41212 ft | 478 kts | 336° |
| 2026-04-30 20:23 | 48.31718 | 3.35093 | 41199 ft | 471 kts | 336° |
| 2026-04-30 20:24 | 48.37773 | 3.31320 | 41227 ft | 476 kts | 336° |
| 2026-04-30 20:24 | 48.43903 | 3.27461 | 41224 ft | 476 kts | 335° |
| 2026-04-30 20:25 | 48.53058 | 3.21610 | 41234 ft | 477 kts | 335° |
| 2026-04-30 20:26 | 48.62220 | 3.15737 | 41240 ft | 477 kts | 335° |
| 2026-04-30 20:26 | 48.71391 | 3.09839 | 41234 ft | 477 kts | 335° |
| 2026-04-30 20:27 | 48.83547 | 3.01837 | 41233 ft | 477 kts | 332° |
| 2026-04-30 20:28 | 48.95146 | 2.92059 | 41244 ft | 476 kts | 328° |
| 2026-04-30 20:30 | 49.09491 | 2.79440 | 41255 ft | 484 kts | 328° |
| 2026-04-30 20:30 | 49.18384 | 2.71582 | 41229 ft | 496 kts | 328° |
| 2026-04-30 20:31 | 49.27298 | 2.63679 | 41244 ft | 492 kts | 328° |
| 2026-04-30 20:32 | 49.42098 | 2.50484 | 41253 ft | 493 kts | 328° |
| 2026-04-30 20:33 | 49.50970 | 2.42566 | 41257 ft | 493 kts | 329° |
| 2026-04-30 20:34 | 49.59974 | 2.34905 | 41245 ft | 493 kts | 330° |
| 2026-04-30 20:35 | 49.69029 | 2.27252 | 41269 ft | 494 kts | 330° |
| 2026-04-30 20:35 | 49.78021 | 2.19596 | 41257 ft | 494 kts | 330° |
| 2026-04-30 20:36 | 49.84062 | 2.14432 | 41269 ft | 494 kts | 330° |
| 2026-04-30 20:37 | 49.93075 | 2.06698 | 41259 ft | 496 kts | 330° |
| 2026-04-30 20:37 | 49.99110 | 2.01493 | 41270 ft | 496 kts | 330° |
| 2026-04-30 20:38 | 50.05104 | 1.96312 | 41277 ft | 485 kts | 330° |
| 2026-04-30 20:38 | 50.10909 | 1.91284 | 41247 ft | 469 kts | 330° |
| 2026-04-30 20:39 | 50.18866 | 1.82465 | 41288 ft | 473 kts | 318° |
| 2026-04-30 20:40 | 50.26126 | 1.72059 | 41258 ft | 475 kts | 315° |
| 2026-04-30 20:40 | 50.30945 | 1.64770 | 41284 ft | 489 kts | 315° |
| 2026-04-30 20:41 | 50.35874 | 1.57245 | 41256 ft | 503 kts | 315° |
| 2026-04-30 20:41 | 50.38383 | 1.53401 | 41255 ft | 502 kts | 315° |
| 2026-04-30 20:41 | 50.43312 | 1.45826 | 41280 ft | 490 kts | 315° |
| 2026-04-30 20:42 | 50.48084 | 1.38450 | 41264 ft | 489 kts | 314° |
| 2026-04-30 20:43 | 50.55157 | 1.26680 | 41261 ft | 490 kts | 312° |
| 2026-04-30 20:43 | 50.59864 | 1.18911 | 41273 ft | 490 kts | 314° |
| 2026-04-30 20:44 | 50.67066 | 1.07549 | 41247 ft | 485 kts | 314° |
| 2026-04-30 20:44 | 50.71864 | 0.99953 | 40005 ft | 492 kts | 314° |
| 2026-04-30 20:45 | 50.76671 | 0.92308 | 38526 ft | 487 kts | 314° |
| 2026-04-30 20:45 | 50.79054 | 0.88511 | 37778 ft | 484 kts | 314° |
| 2026-04-30 20:45 | 50.81424 | 0.84728 | 37021 ft | 482 kts | 314° |
| 2026-04-30 20:46 | 50.88528 | 0.73346 | 33833 ft | 492 kts | 313° |
| 2026-04-30 20:46 | 50.90950 | 0.69447 | 32590 ft | 498 kts | 313° |
| 2026-04-30 20:47 | 50.95850 | 0.61537 | 30022 ft | 508 kts | 314° |
| 2026-04-30 20:47 | 50.98331 | 0.57533 | 28836 ft | 509 kts | 314° |
| 2026-04-30 20:48 | 51.03286 | 0.49523 | 26677 ft | 505 kts | 314° |
| 2026-04-30 20:48 | 51.05735 | 0.45552 | 25665 ft | 502 kts | 314° |
| 2026-04-30 20:48 | 51.08181 | 0.41699 | 24697 ft | 498 kts | 315° |
| 2026-04-30 20:48 | 51.10659 | 0.37898 | 23769 ft | 494 kts | 316° |
| 2026-04-30 20:49 | 51.13141 | 0.34126 | 22907 ft | 489 kts | 316° |
| 2026-04-30 20:49 | 51.15588 | 0.30405 | 22089 ft | 483 kts | 316° |
| 2026-04-30 20:49 | 51.18001 | 0.26723 | 21255 ft | 477 kts | 315° |
| 2026-04-30 20:50 | 51.22717 | 0.19493 | 19595 ft | 467 kts | 315° |
| 2026-04-30 20:50 | 51.25040 | 0.15919 | 18752 ft | 462 kts | 315° |
| 2026-04-30 20:50 | 51.27342 | 0.12372 | 17757 ft | 453 kts | 315° |
| 2026-04-30 20:50 | 51.29568 | 0.08896 | 16636 ft | 443 kts | 313° |
| 2026-04-30 20:51 | 51.31419 | 0.05046 | 15506 ft | 432 kts | 300° |
| 2026-04-30 20:51 | 51.33331 | -0.03747 | 13290 ft | 410 kts | 277° |
| 2026-04-30 20:51 | 51.33704 | -0.08235 | 12134 ft | 405 kts | 273° |
| 2026-04-30 20:52 | 51.33967 | -0.12701 | 10971 ft | 401 kts | 272° |
| 2026-04-30 20:52 | 51.34192 | -0.17052 | 9854 ft | 397 kts | 272° |
| 2026-04-30 20:52 | 51.34608 | -0.25747 | 7774 ft | 383 kts | 270° |
| 2026-04-30 20:53 | 51.34696 | -0.29928 | 6915 ft | 373 kts | 268° |
| 2026-04-30 20:53 | 51.34764 | -0.34016 | 6181 ft | 361 kts | 268° |
| 2026-04-30 20:53 | 51.34829 | -0.37957 | 5589 ft | 346 kts | 268° |
| 2026-04-30 20:54 | 51.34951 | -0.45328 | 5098 ft | 323 kts | 268° |
| 2026-04-30 20:54 | 51.35014 | -0.48898 | 5204 ft | 318 kts | 268° |
| 2026-04-30 20:54 | 51.35077 | -0.52461 | 5975 ft | 318 kts | 268° |
| 2026-04-30 20:55 | 51.35213 | -0.59566 | 6788 ft | 312 kts | 268° |
| 2026-04-30 20:55 | 51.35286 | -0.62945 | 6933 ft | 296 kts | 268° |
| 2026-04-30 20:55 | 51.35361 | -0.66166 | 6984 ft | 287 kts | 268° |
| 2026-04-30 20:56 | 51.35513 | -0.72504 | 6973 ft | 283 kts | 268° |
| 2026-04-30 20:56 | 51.35589 | -0.75633 | 6754 ft | 279 kts | 268° |
| 2026-04-30 20:56 | 51.35918 | -0.81860 | 6018 ft | 287 kts | 283° |
| 2026-04-30 20:57 | 51.36908 | -0.84615 | 5676 ft | 292 kts | 309° |
| 2026-04-30 20:57 | 51.38520 | -0.86540 | 5309 ft | 290 kts | 334° |
| 2026-04-30 20:57 | 51.40452 | -0.87311 | 4893 ft | 284 kts | 355° |
| 2026-04-30 20:58 | 51.44317 | -0.87272 | 4167 ft | 270 kts | 21° |
| 2026-04-30 20:58 | 51.45866 | -0.85834 | 4126 ft | 252 kts | 43° |
| 2026-04-30 20:58 | 51.46899 | -0.83690 | 4072 ft | 233 kts | 69° |
| 2026-04-30 20:58 | 51.47417 | -0.81321 | 3974 ft | 221 kts | 87° |
| 2026-04-30 20:59 | 51.47545 | -0.76498 | 3510 ft | 216 kts | 93° |
| 2026-04-30 20:59 | 51.47597 | -0.74087 | 3211 ft | 217 kts | 94° |
| 2026-04-30 21:00 | 51.47663 | -0.69274 | 2615 ft | 208 kts | 94° |
| 2026-04-30 21:00 | 51.47696 | -0.65067 | 2112 ft | 172 kts | 88° |
| 2026-04-30 21:01 | 51.47718 | -0.61567 | 1682 ft | 143 kts | 94° |
| 2026-04-30 21:01 | 51.47720 | -0.60037 | 1501 ft | 133 kts | 95° |
| 2026-04-30 21:01 | 51.47723 | -0.57099 | 1160 ft | 131 kts | 94° |
| 2026-04-30 21:02 | 51.47724 | -0.55641 | 988 ft | 131 kts | 93° |
| 2026-04-30 21:02 | 51.47717 | -0.54663 | 867 ft | 131 kts | 93° |
| 2026-04-30 21:02 | 51.47713 | -0.52692 | 622 ft | 133 kts | 90° |
| 2026-04-30 21:02 | 51.47721 | -0.51715 | 503 ft | 134 kts | 89° |
| 2026-04-30 21:03 | 51.47730 | -0.50201 | 315 ft | 136 kts | 89° |
| 2026-04-30 21:03 | 51.47747 | -0.48674 | 145 ft | 136 kts | 89° |
| 2026-04-30 21:03 | 51.47753 | -0.47250 | 98 ft | 117 kts | 89° |
| 2026-04-30 21:03 | 51.47757 | -0.46394 | 96 ft | 47 kts | 89° |
| 2026-04-30 21:04 | 51.47758 | -0.45891 | 96 ft | 43 kts | 90° |
| 2026-04-30 21:04 | 51.47755 | -0.45542 | 96 ft | 19 kts | 105° |
| 2026-04-30 21:04 | 51.47567 | -0.45469 | 96 ft | 9 kts | 189° |
| 2026-04-30 21:05 | 51.47534 | -0.45540 | 96 ft | 9 kts | 252° |
| 2026-04-30 21:05 | 51.47527 | -0.45651 | 96 ft | 11 kts | 268° |
| 2026-04-30 21:05 | 51.47526 | -0.45784 | 96 ft | 12 kts | 263° |
| 2026-04-30 21:05 | 51.47517 | -0.45922 | 96 ft | 13 kts | 269° |
| 2026-04-30 21:06 | 51.47517 | -0.46083 | 96 ft | 15 kts | 269° |
| 2026-04-30 21:06 | 51.47516 | -0.46262 | 96 ft | 17 kts | 270° |
| 2026-04-30 21:06 | 51.47516 | -0.46455 | 96 ft | 18 kts | 270° |
| 2026-04-30 21:06 | 51.47515 | -0.46664 | 96 ft | 19 kts | 268° |
| 2026-04-30 21:07 | 51.47495 | -0.46848 | 96 ft | 17 kts | 269° |
| 2026-04-30 21:07 | 51.47494 | -0.47043 | 96 ft | 18 kts | 269° |
| 2026-04-30 21:07 | 51.47492 | -0.47253 | 96 ft | 19 kts | 269° |
| 2026-04-30 21:07 | 51.47491 | -0.47458 | 96 ft | 18 kts | 269° |
| 2026-04-30 21:08 | 51.47491 | -0.47668 | 96 ft | 19 kts | 270° |
| 2026-04-30 21:08 | 51.47490 | -0.47837 | 96 ft | 14 kts | 270° |
| 2026-04-30 21:08 | 51.47490 | -0.47995 | 96 ft | 15 kts | 270° |
| 2026-04-30 21:08 | 51.47489 | -0.48167 | 96 ft | 16 kts | 269° |
| 2026-04-30 21:09 | 51.47476 | -0.48338 | 96 ft | 12 kts | 237° |
| 2026-04-30 21:09 | 51.47414 | -0.48361 | 96 ft | 10 kts | 181° |
| 2026-04-30 21:09 | 51.47334 | -0.48361 | 96 ft | 13 kts | 180° |
| 2026-04-30 21:09 | 51.47263 | -0.48352 | 96 ft | 6 kts | 149° |
| 2026-04-30 21:10 | 51.47246 | -0.48309 | 96 ft | 3 kts | 94° |
| 2026-04-30 21:10 | 51.47247 | -0.48267 | 96 ft | 2 kts | 90° |
| 2026-04-30 21:10 | 51.47247 | -0.48248 | 96 ft | 2 kts | 90° |
| 2026-04-30 21:10 | 51.47247 | -0.48247 | 96 ft | 0 kts | 90° |
| 2026-04-30 21:13 | 51.47247 | -0.48246 | 96 ft | 0 kts | 90° |
| 2026-04-30 21:15 | 51.47247 | -0.48245 | 96 ft | 0 kts | 90° |
| 2026-04-30 21:17 | 51.47247 | -0.48244 | 96 ft | 0 kts | 90° |